Aktualne dane pomiarowe

Uwaga, wersja testowa! Automatyczne pobieranie danych za pomocą narzędzi lub skryptów to umożliwiających jest zabronione.

Dane meteo z obszaru Polski uzyskane na podstawie depesz SYNOP pobieranych co godzinę z NWS. Najedź myszką na symbol przedstawiony w tabeli, aby uzyskać informacje co do jego znaczenia. Prosimy pamiętać, że to testowa wersja strony, która jeszcze nie jest ukończona. Stworzono również jest krótki FAQ dotyczący korzystania z tej podstrony Anomalie temperatury w chwili obecnej odniesione są do okresu referencyjnego 1951-2016. Okres ten będzie później zmieniony na 1981-2010. Kliknij ikonę aby pobrać plik CSV. Kliknij ikonę aby wygenerować mapę synoptyczną dla danego terminu.

Wybierz Datę:    

        

Poznań (12330)

Dane terminowe dla wybranej stacji. Kliknij datę, aby otrzymać dane z tego terminu dla wszystkich stacji.

TemperaturaZachmurzenieWiatrCiśnienieOpadyPogoda
 Data t td wb tx tn tg rh  Nt Nl Cl Cm Ch ws wd g1 g2 wx mslp ppp ch 24h 12h t ww ww w1 w2  
2019-08-08 23:00:00 16.0 15.0 15.3--- 940.3wx-1wx--11012.11001.6 1.3---wx---
2019-08-08 22:00:00 16.5 15.4 15.7--- 9312.0wx-wx1wx--11012.01001.5 2.0---------
2019-08-08 21:00:00 17.0 15.3 15.8--- 9040.0wx-wx2wx-1221011.41000.9 1.8---wx-w1--
2019-08-08 20:00:00 18.8 15.3 16.4--- 8040.0wxwxwx3wx8--1010.71000.3 1.2---wx-w1--
2019-08-08 19:00:00 22.7 12.0 16.1--- 5150.0wxwxwx2wx--21009.8 999.5 0.3---------
2019-08-08 18:00:00 24.0 11.3 16.4 26.4 18.4- 4550.0wxwxwx3wx-1031009.3 999.1 -0.2--12wx-w1w2--
2019-08-08 17:00:00 25.6 11.0 16.9--- 4050.0wxwxwxwx5wx--51009.3 999.1 -0.4---------
2019-08-08 16:00:00 26.2 10.4 16.9--- 3750.0wxwxwxwx5wx---1009.3 999.2 -0.7---------
2019-08-08 15:00:00 25.7 11.1 17.0--- 4050.0wxwxwxwx6wx---1009.5 999.3 -1.0---wx-w1w2--
2019-08-08 14:00:00 25.7 11.8 17.3--- 4250.0wxwxwxwx4wx-1041009.7 999.5 -0.8---------
2019-08-08 13:00:00 25.2 12.1 17.2--- 4450.0wxwxwxwx4wx-1041010.1 999.9 -0.3---wx-w1--
2019-08-08 12:00:00 24.4 13.0 17.3--- 4950.0wxwxwxwx4wx--41010.51000.3 0.3--6wx-w1--
2019-08-08 11:00:00 23.3 12.9 16.8--- 5250.0wxwxwx6wx--61010.51000.3 0.6---wx---
2019-08-08 10:00:00 23.1 13.3 17.0--- 5450.0wxwxwx5wx--51010.51000.2 0.8---------
2019-08-08 09:00:00 22.4 14.0 17.0--- 5950.0wxwxwx6wx--61010.31000.0 1.1---------
2019-08-08 08:00:00 21.4 14.5 16.9--- 6550.0wxwxwx5wx--51010.0 999.7 1.4---------
2019-08-08 07:00:00 19.8 15.2 16.7--- 7535.0wxwxwx5wx--51009.8 999.4 1.7---------
2019-08-08 06:00:00 18.4 15.6 16.4 20.0 17.3 17 8425.0wx-4wx--41009.3 998.9 1.5 7.2 4.012----- 7.3
2019-08-08 05:00:00 17.5 16.2 16.6--- 9215.0wx-5wx---1008.7 998.3 1.5---------
2019-08-08 04:00:00 17.4 16.6 16.8--- 9510.0wxwxwxwx3wx---1008.1 997.7 1.2---------
2019-08-08 03:00:00 17.7 17.1 17.3--- 969.0wxwxwxwxwx3wx--31007.8 997.4 1.0---wx---
2019-08-08 02:00:00 17.9 17.3 17.5--- 9612.0wxwxwxwxwx4wx--41007.2 996.8 0.8---------
2019-08-08 01:00:00 18.5 17.8 18.0--- 9612.0wxwxwxwx4wx--41006.9 996.5 0.5---------
2019-08-08 00:00:00 18.6 17.9 18.1--- 9615.0wxwxwx4wx---1006.8 996.4 0.6---wx-w1--
2019-08-07 23:00:00 18.8 18.1 18.3--- 9620.0wxwxwxwx3wx--31006.4 996.0 0.3---wx-w1w2--
2019-08-07 22:00:00 18.8 18.1 18.3--- 9615.0wxwxwx3wx--31006.4 996.0 0.8---wx-w1w2--
2019-08-07 21:00:00 18.8 17.8 18.1--- 9412.0wxwxwxwx4wx--41006.2 995.8 0.7---wx-w1--
2019-08-07 20:00:00 19.9 19.1 19.3--- 958.0wxwxwx2wx---1006.0 995.7 0.2---wx---
2019-08-07 19:00:00 19.6 18.4 18.7--- 9320.0wxwxwxwx1wx---1005.5 995.2 -0.8---------
2019-08-07 18:00:00 19.7 18.5 18.8 28.2 18.9- 9320.0wxwxwxwx1wx-1911005.4 995.1 0.8- 4.012wx-w1w2--
2019-08-07 17:00:00 19.7 18.7 19.0--- 9420.0wxwxwxwx2wx--21005.8 995.5 0.6---wx-w1w2--
2019-08-07 16:00:00 20.0 18.5 18.9--- 9110.0wxwxwx4wx-1941006.3 996.0 0.3---wx-w1w2--
2019-08-07 15:00:00 27.5 13.8 19.0--- 4350.0wxwxwx4wx--41004.3 994.3 -2.1---------
2019-08-07 14:00:00 27.9 14.5 19.5--- 4450.0wxwxwxwxwx5wx---1004.9 994.9 -2.1---------
2019-08-07 13:00:00 27.7 14.7 19.5--- 4550.0wxwxwxwxwx5wx--51005.7 995.7 -1.7---------
2019-08-07 12:00:00 27.0 14.4 19.1--- 4650.0wxwxwxwxwx4wx--41006.5 996.4 -1.1- 0.06------
2019-08-07 11:00:00 25.5 15.8 19.2--- 5550.0wxwxwxwx3wx--31007.1 997.0 -0.5---------
2019-08-07 10:00:00 25.4 15.4 19.0--- 5450.0wxwxwxwxwx3wx--31007.5 997.4 -0.4---------
2019-08-07 09:00:00 24.3 16.0 18.9--- 6050.0wxwxwxwx3wx--31007.7 997.5 -0.3---------
2019-08-07 08:00:00 22.8 16.6 18.6--- 6850.0wx-wx2wx--21007.7 997.5 -0.3---------
2019-08-07 07:00:00 20.9 16.5 17.9--- 7640.0wx-wx2wx--21008.1 997.8 0.0---------
2019-08-07 06:00:00 18.9 16.7 17.3 22.3 16.7 16 8720.0wx-wx2wx--21008.2 997.8 0.3 0.7 0.712----- 10.8
2019-08-07 05:00:00 17.6 16.5 16.8--- 9315.0wx-wx1wx--11008.2 997.8 0.1---------
2019-08-07 04:00:00 16.7 15.9 16.1--- 9510.0wx-wx2wx---1008.3 997.8 -0.3---------
2019-08-07 03:00:00 17.0 16.4 16.5--- 968.0wx-wxwx2wx--21007.9 997.5 -0.5---wx---
2019-08-07 02:00:00 17.8 17.0 17.2--- 958.0wx-wxwx2wx--21008.1 997.7 -0.5---wx---
2019-08-07 01:00:00 18.7 17.2 17.6--- 9115.0wx-wx1wx--11008.5 998.1 -0.8---------
2019-08-07 00:00:00 18.6 17.4 17.7--- 9320.0wxwxwxwx1wx-1211008.4 998.0 -0.7- 0.76wx-w1--
6.9 ms

 

Print Friendly, PDF & Email